Time;durP1;ratioP1;P1;durP2;ratioP2;P2;SDS_P1;SDS_P2;PMS_P1;PMS_P2;Temp;Humidity;BMP_temperature;BMP_pressure;BME280_temperature;BME280_humidity;BME280_pressure;Samples;Min_cycle;Max_cycle;Signal;HPM_P1;HPM_P2
2022/07/04 00:01:37;;;;;;;11.90;8.43;;;;;;;13.37;100.00;102012.78;2611734;36;20103;-57
2022/07/04 00:04:05;;;;;;;12.05;8.50;;;;;;;13.30;100.00;102002.44;2613762;36;20061;-52
2022/07/04 00:06:34;;;;;;;14.18;9.27;;;;;;;13.14;100.00;102016.34;2613041;36;20037;-54
2022/07/04 00:09:02;;;;;;;13.32;8.27;;;;;;;13.07;100.00;102003.47;2613422;36;20069;-54
2022/07/04 00:11:30;;;;;;;11.25;8.07;;;;;;;12.99;100.00;101996.00;2609257;36;20542;-54
2022/07/04 00:13:59;;;;;;;14.60;8.85;;;;;;;12.99;100.00;102005.97;2602832;36;20042;-51
2022/07/04 00:16:27;;;;;;;12.82;8.82;;;;;;;13.04;100.00;102011.84;2603840;36;20073;-58
2022/07/04 00:18:58;;;;;;;14.75;8.23;;;;;;;12.92;100.00;101998.31;2603100;36;20104;-55
2022/07/04 00:21:26;;;;;;;12.25;8.68;;;;;;;13.01;100.00;102002.13;2613186;36;20034;-54
2022/07/04 00:23:55;;;;;;;11.90;9.07;;;;;;;13.03;100.00;101994.78;2612951;36;20057;-54
2022/07/04 00:26:23;;;;;;;14.70;9.85;;;;;;;13.10;100.00;101987.00;2612456;36;20084;-56
2022/07/04 00:28:51;;;;;;;14.80;9.47;;;;;;;13.10;100.00;101987.00;2613334;36;20042;-53
2022/07/04 00:31:19;;;;;;;14.73;9.02;;;;;;;13.07;100.00;101989.97;2613279;31;20857;-55
2022/07/04 00:33:48;;;;;;;11.60;8.73;;;;;;;13.14;100.00;101992.03;2612567;36;20065;-57
2022/07/04 00:36:19;;;;;;;9.88;8.35;;;;;;;13.03;100.00;101991.19;2613111;36;20045;-57
2022/07/04 00:38:47;;;;;;;15.63;8.65;;;;;;;12.97;100.00;101990.72;2611708;36;20042;-56
2022/07/04 00:41:15;;;;;;;11.55;8.35;;;;;;;12.89;100.00;101989.63;2613262;36;20030;-55
2022/07/04 00:43:44;;;;;;;12.20;8.48;;;;;;;12.85;100.00;101988.97;2613591;36;20031;-56
2022/07/04 00:46:12;;;;;;;13.88;8.32;;;;;;;12.82;100.00;101989.22;2613224;31;20592;-51
2022/07/04 00:48:40;;;;;;;15.07;8.45;;;;;;;12.81;100.00;101984.84;2612862;36;20042;-56
2022/07/04 00:51:09;;;;;;;9.10;8.10;;;;;;;12.86;100.00;101982.59;2605843;36;20193;-58
2022/07/04 00:53:40;;;;;;;12.95;9.20;;;;;;;12.92;100.00;101995.63;2613722;31;20539;-52
2022/07/04 00:56:08;;;;;;;18.73;9.32;;;;;;;12.98;100.00;101988.88;2613413;36;20037;-53
2022/07/04 00:58:37;;;;;;;15.90;8.32;;;;;;;12.88;100.00;101983.38;2614139;36;20039;-55
2022/07/04 01:01:05;;;;;;;16.02;8.63;;;;;;;12.75;100.00;101985.28;2612540;36;20582;-57
2022/07/04 01:03:33;;;;;;;12.80;9.40;;;;;;;12.73;100.00;101992.69;2613870;36;20447;-55
2022/07/04 01:06:03;;;;;;;14.32;9.30;;;;;;;12.76;100.00;101987.91;2612511;36;20034;-55
2022/07/04 01:08:31;;;;;;;14.68;8.95;;;;;;;12.59;100.00;101985.69;2612913;31;20034;-55
2022/07/04 01:11:02;;;;;;;10.85;9.13;;;;;;;12.55;100.00;101979.66;2613656;36;20065;-56
2022/07/04 01:13:30;;;;;;;12.43;8.73;;;;;;;12.56;100.00;101978.69;2613639;31;20556;-55
2022/07/04 01:15:58;;;;;;;14.13;9.18;;;;;;;12.55;100.00;101982.34;2613228;36;20038;-53
2022/07/04 01:18:27;;;;;;;14.80;8.80;;;;;;;12.58;100.00;101974.00;2611824;36;20042;-57
2022/07/04 01:20:58;;;;;;;12.10;8.35;;;;;;;12.54;100.00;101975.22;2612429;36;20530;-53
2022/07/04 01:23:26;;;;;;;14.15;8.70;;;;;;;12.57;100.00;101983.13;2613418;31;20038;-56
2022/07/04 01:25:59;;;;;;;15.57;8.52;;;;;;;12.46;100.00;101979.53;2613360;36;20057;-54
2022/07/04 01:28:27;;;;;;;15.20;8.55;;;;;;;12.43;100.00;101964.44;2612346;36;20415;-56
2022/07/04 01:30:56;;;;;;;13.93;8.85;;;;;;;12.52;100.00;101963.69;2612663;36;20167;-57
2022/07/04 01:33:24;;;;;;;16.92;9.80;;;;;;;12.51;100.00;101959.25;2612484;36;20551;-57
2022/07/04 01:35:52;;;;;;;16.63;9.60;;;;;;;12.43;100.00;101969.84;2613913;36;20551;-56
2022/07/04 01:38:24;;;;;;;14.35;8.68;;;;;;;12.42;100.00;101966.25;2611651;36;20034;-56
2022/07/04 01:40:52;;;;;;;11.38;9.57;;;;;;;12.49;100.00;101969.34;2611788;36;20560;-53
2022/07/04 01:43:20;;;;;;;15.20;8.98;;;;;;;12.44;100.00;101958.91;2613238;36;20046;-57
2022/07/04 01:45:49;;;;;;;13.70;9.10;;;;;;;12.38;100.00;101967.50;2611039;36;20081;-56
2022/07/04 01:48:18;;;;;;;16.60;9.05;;;;;;;12.37;100.00;101960.38;2611662;36;20042;-57
2022/07/04 01:50:46;;;;;;;;;;;;;;;12.26;100.00;101963.94;2611453;36;20617;-55
2022/07/04 01:53:14;;;;;;;13.32;9.27;;;;;;;12.27;100.00;101959.38;2612347;36;19985;-56
2022/07/04 01:55:45;;;;;;;18.17;10.23;;;;;;;12.25;100.00;101962.19;2612762;36;20042;-57
2022/07/04 01:58:14;;;;;;;16.65;10.77;;;;;;;12.29;100.00;101956.56;2613431;36;20034;-58
2022/07/04 02:03:23;;;;;;;15.23;8.73;;;;;;;12.26;100.00;101958.53;2613300;31;20035;-56
2022/07/04 02:05:51;;;;;;;15.00;8.73;;;;;;;12.34;100.00;101954.38;2614750;36;20038;-54
2022/07/04 02:08:20;;;;;;;13.57;8.45;;;;;;;12.31;100.00;101954.59;2612828;36;20038;-55
2022/07/04 02:10:51;;;;;;;13.43;8.13;;;;;;;12.33;100.00;101948.09;2613663;36;20436;-53
2022/07/04 02:13:16;;;;;;;13.38;8.30;;;;;;;12.32;100.00;101956.31;2613499;36;20046;-56
2022/07/04 02:15:45;;;;;;;14.07;8.60;;;;;;;12.29;100.00;101959.25;2613680;36;20060;-57
2022/07/04 02:18:14;;;;;;;18.45;8.98;;;;;;;12.27;100.00;101959.38;2614167;31;20478;-59
2022/07/04 02:20:42;;;;;;;14.60;8.70;;;;;;;12.22;100.00;101962.44;2612849;36;20401;-57
2022/07/04 02:23:10;;;;;;;14.65;7.95;;;;;;;12.21;100.00;101959.88;2613183;36;20517;-55
2022/07/04 02:25:39;;;;;;;17.50;8.65;;;;;;;12.20;100.00;101958.97;2613783;36;20034;-52
2022/07/04 02:28:10;;;;;;;16.50;8.27;;;;;;;12.18;100.00;101960.09;2613514;36;20062;-54
2022/07/04 02:30:38;;;;;;;11.13;8.27;;;;;;;12.15;100.00;101955.78;2613527;36;20065;-55
2022/07/04 02:33:06;;;;;;;12.10;8.35;;;;;;;12.11;100.00;101964.25;2611878;36;20562;-56
2022/07/04 02:35:35;;;;;;;16.98;9.02;;;;;;;12.07;100.00;101960.91;2613854;36;20611;-56
2022/07/04 02:38:03;;;;;;;11.65;7.22;;;;;;;12.15;100.00;101955.78;2613485;36;20031;-58
2022/07/04 02:40:31;;;;;;;15.25;7.97;;;;;;;12.16;100.00;101952.13;2613368;31;20041;-57
2022/07/04 02:42:59;;;;;;;15.55;8.23;;;;;;;12.18;100.00;101949.31;2613416;36;20107;-55
2022/07/04 02:45:30;;;;;;;14.32;8.35;;;;;;;12.13;100.00;101955.06;2613032;36;20570;-56
2022/07/04 02:47:59;;;;;;;12.98;7.72;;;;;;;12.12;100.00;101947.94;2613379;36;20555;-55
2022/07/04 02:50:27;;;;;;;14.75;7.55;;;;;;;12.07;100.00;101947.44;2613653;36;20049;-54
2022/07/04 02:52:55;;;;;;;11.23;8.10;;;;;;;11.98;100.00;101954.38;2613307;36;20034;-56
2022/07/04 02:55:23;;;;;;;15.30;8.45;;;;;;;11.96;100.00;101955.50;2613795;36;20046;-53
2022/07/04 02:57:52;;;;;;;8.93;7.57;;;;;;;12.02;100.00;101958.59;2614454;36;20034;-52
2022/07/04 03:00:20;;;;;;;10.07;7.78;;;;;;;12.00;100.00;101946.19;2612417;36;20037;-52
2022/07/04 03:02:51;;;;;;;13.02;8.27;;;;;;;11.97;100.00;101952.69;2609067;36;20037;-55
2022/07/04 03:05:20;;;;;;;14.75;9.43;;;;;;;11.99;100.00;101945.31;2613244;36;20044;-53
2022/07/04 03:07:48;;;;;;;18.40;9.65;;;;;;;12.00;100.00;101946.19;2614613;31;20064;-52
2022/07/04 03:10:16;;;;;;;13.57;10.47;;;;;;;12.03;100.00;101945.97;2614931;31;20646;-54
2022/07/04 03:12:45;;;;;;;13.80;9.45;;;;;;;12.01;100.00;101956.00;2615202;31;20038;-53
2022/07/04 03:15:13;;;;;;;18.13;10.05;;;;;;;12.01;100.00;101947.91;2613140;36;20031;-54
2022/07/04 03:17:41;;;;;;;17.75;10.05;;;;;;;12.04;100.00;101953.06;2611273;36;20157;-55
2022/07/04 03:20:13;;;;;;;14.95;9.63;;;;;;;12.06;100.00;101951.13;2611733;36;20632;-51
2022/07/04 03:22:41;;;;;;;16.65;10.25;;;;;;;12.03;100.00;101956.75;2613566;36;20054;-50
2022/07/04 03:25:09;;;;;;;13.52;9.15;;;;;;;12.01;100.00;101959.56;2613911;36;20041;-56
2022/07/04 03:27:38;;;;;;;15.25;9.48;;;;;;;12.05;100.00;101965.59;2613455;36;20034;-53
2022/07/04 03:30:07;;;;;;;20.85;10.13;;;;;;;12.05;100.00;101958.34;2614465;31;20038;-54
2022/07/04 03:32:35;;;;;;;14.27;10.20;;;;;;;12.02;100.00;101961.28;2610939;36;20808;-56
2022/07/04 03:35:04;;;;;;;18.00;9.63;;;;;;;12.13;100.00;101971.25;2612374;36;20034;-56
2022/07/04 03:37:35;;;;;;;14.57;10.27;;;;;;;12.14;100.00;101962.16;2612784;36;20070;-54
2022/07/04 03:40:04;;;;;;;17.73;10.38;;;;;;;12.20;100.00;101964.38;2613386;36;20038;-55
2022/07/04 03:42:32;;;;;;;16.48;10.02;;;;;;;12.16;100.00;101962.91;2613144;31;20054;-54
2022/07/04 03:45:00;;;;;;;15.20;10.48;;;;;;;12.21;100.00;101966.09;2613112;36;20034;-56
2022/07/04 03:47:28;;;;;;;15.25;10.40;;;;;;;12.31;100.00;101960.88;2612404;36;20031;-55
2022/07/04 03:49:57;;;;;;;17.55;10.18;;;;;;;12.23;100.00;101974.97;2613385;36;20113;-55
2022/07/04 03:52:25;;;;;;;17.02;10.30;;;;;;;12.30;100.00;101975.31;2612887;31;20776;-55
2022/07/04 03:54:56;;;;;;;17.67;10.65;;;;;;;12.31;100.00;101960.88;2612441;36;20038;-54
2022/07/04 03:57:27;;;;;;;17.02;10.50;;;;;;;12.33;100.00;101966.13;2612947;36;20065;-54
2022/07/04 03:59:59;;;;;;;16.52;11.20;;;;;;;12.34;100.00;101970.56;2615672;47;20035;-57
2022/07/04 04:02:28;;;;;;;15.43;10.57;;;;;;;12.40;100.00;101970.06;2612999;36;20034;-58
2022/07/04 04:07:37;;;;;;;15.60;10.50;;;;;;;12.56;100.00;101965.19;2612645;31;20050;-53
2022/07/04 04:10:09;;;;;;;16.77;10.03;;;;;;;12.61;100.00;101967.50;2614842;31;20496;-55
2022/07/04 04:12:38;;;;;;;15.43;10.18;;;;;;;12.65;100.00;101963.59;2614116;36;20815;-53
2022/07/04 04:15:07;;;;;;;16.03;10.23;;;;;;;12.74;100.00;101962.00;2613213;36;20417;-53
2022/07/04 04:17:35;;;;;;;19.15;10.75;;;;;;;12.84;100.00;101972.91;2613801;36;20823;-53
2022/07/04 04:20:03;;;;;;;18.02;10.57;;;;;;;12.80;100.00;101977.69;2613430;36;20069;-55
2022/07/04 04:22:32;;;;;;;16.50;10.10;;;;;;;12.88;100.00;101974.38;2613042;36;20539;-58
2022/07/04 04:25:00;;;;;;;16.88;10.98;;;;;;;12.90;100.00;101978.69;2613767;36;20408;-57
2022/07/04 04:27:31;;;;;;;17.13;9.93;;;;;;;12.99;100.00;101982.47;2614429;31;20065;-53
2022/07/04 04:29:59;;;;;;;14.68;10.38;;;;;;;13.03;100.00;101977.69;2613784;36;20090;-57
2022/07/04 04:32:28;;;;;;;15.90;11.48;;;;;;;13.09;100.00;101988.00;2612930;31;20536;-55
2022/07/04 04:34:56;;;;;;;21.30;11.10;;;;;;;13.14;100.00;101981.22;2614166;36;20463;-55
2022/07/04 04:37:24;;;;;;;16.58;10.95;;;;;;;13.19;100.00;101972.75;2613243;36;20041;-52
2022/07/04 04:39:53;;;;;;;20.33;10.88;;;;;;;13.20;100.00;101979.00;2612841;36;20063;-53
2022/07/04 04:42:21;;;;;;;14.95;10.93;;;;;;;13.22;100.00;101977.91;2613930;31;20055;-60
2022/07/04 04:44:52;;;;;;;16.60;10.80;;;;;;;13.27;100.00;101986.50;2612620;36;20061;-54
2022/07/04 04:47:20;;;;;;;17.10;11.70;;;;;;;13.29;100.00;101981.84;2614330;36;20065;-52
2022/07/04 04:49:49;;;;;;;17.17;12.23;;;;;;;13.27;100.00;101996.44;2613448;36;20031;-56
2022/07/04 04:52:18;;;;;;;18.27;11.60;;;;;;;13.32;100.00;101991.50;2613067;36;20039;-58
2022/07/04 04:54:46;;;;;;;19.77;10.80;;;;;;;13.43;100.00;101991.53;2613192;36;20042;-56
2022/07/04 04:57:14;;;;;;;20.23;11.80;;;;;;;13.73;100.00;101997.22;2613898;36;20622;-56
2022/07/04 04:59:42;;;;;;;14.98;10.80;;;;;;;13.89;100.00;101992.22;2613101;36;20069;-56
2022/07/04 05:02:13;;;;;;;14.85;11.73;;;;;;;13.93;100.00;101988.28;2612629;36;20082;-58
2022/07/04 05:04:42;;;;;;;13.73;10.65;;;;;;;13.80;100.00;101988.44;2611858;36;20042;-54
2022/07/04 05:07:10;;;;;;;15.80;10.07;;;;;;;13.83;100.00;101995.44;2606267;36;20058;-52
2022/07/04 05:09:39;;;;;;;19.50;11.20;;;;;;;13.96;100.00;102003.41;2613144;31;20093;-57
2022/07/04 05:12:07;;;;;;;19.30;10.95;;;;;;;14.02;100.00;101998.31;2613179;36;20042;-56
2022/07/04 05:14:36;;;;;;;18.08;10.90;;;;;;;14.11;100.00;101991.25;2612911;31;20034;-54
2022/07/04 05:17:04;;;;;;;18.60;10.60;;;;;;;14.29;100.00;102001.47;2609228;36;20733;-57
2022/07/04 05:19:35;;;;;;;17.83;10.20;;;;;;;14.34;100.00;102000.09;2610309;36;21313;-54
2022/07/04 05:22:04;;;;;;;15.65;10.70;;;;;;;14.49;100.00;101997.91;2613402;36;20415;-56
2022/07/04 05:24:32;;;;;;;18.13;10.48;;;;;;;14.53;100.00;101993.94;2612450;36;20031;-56
2022/07/04 05:27:01;;;;;;;14.38;9.55;;;;;;;14.66;100.00;101996.47;2613753;36;20035;-55
2022/07/04 05:29:29;;;;;;;15.70;9.82;;;;;;;14.60;100.00;101991.53;2612554;36;20038;-57
2022/07/04 05:31:57;;;;;;;17.10;10.15;;;;;;;14.51;100.00;101995.06;2612255;36;20039;-54
2022/07/04 05:34:25;;;;;;;20.02;9.50;;;;;;;14.53;100.00;101996.66;2611940;36;20075;-54
2022/07/04 05:36:56;;;;;;;15.80;10.07;;;;;;;14.54;100.00;101997.50;2614605;36;20035;-57
2022/07/04 05:39:25;;;;;;;17.35;10.68;;;;;;;14.65;100.00;102005.59;2612781;36;20042;-55
2022/07/04 05:41:53;;;;;;;16.67;10.07;;;;;;;14.76;100.00;102003.78;2613160;31;20063;-57
2022/07/04 05:44:21;;;;;;;13.90;9.75;;;;;;;14.81;100.00;102001.50;2614586;36;20042;-56
2022/07/04 05:46:50;;;;;;;14.82;9.40;;;;;;;14.93;100.00;101996.84;2613830;36;20069;-58
2022/07/04 05:49:18;;;;;;;17.63;9.98;;;;;;;15.14;100.00;102004.94;2613453;36;20034;-56
2022/07/04 05:51:46;;;;;;;12.63;8.82;;;;;;;15.22;100.00;102002.38;2614319;36;20035;-56
2022/07/04 05:54:17;;;;;;;14.57;9.60;;;;;;;15.24;100.00;102005.81;2611890;36;20093;-58
2022/07/04 05:56:46;;;;;;;14.27;9.20;;;;;;;15.30;100.00;101994.41;2613691;36;20057;-58
2022/07/04 05:59:14;;;;;;;13.13;9.40;;;;;;;15.38;100.00;102008.09;2614147;36;20081;-58
2022/07/04 06:01:42;;;;;;;14.20;9.43;;;;;;;15.52;100.00;101997.88;2611747;36;20062;-58
2022/07/04 06:04:11;;;;;;;17.58;9.13;;;;;;;15.55;100.00;102000.31;2612500;36;20039;-56
2022/07/04 06:06:39;;;;;;;19.03;8.77;;;;;;;15.44;100.00;102001.28;2613832;36;20061;-56
2022/07/04 06:09:07;;;;;;;16.02;8.30;;;;;;;15.77;100.00;102004.63;2613920;36;20299;-56
2022/07/04 06:11:38;;;;;;;19.43;9.00;;;;;;;15.84;100.00;102015.78;2613559;36;20555;-55
2022/07/04 06:14:06;;;;;;;12.82;8.05;;;;;;;15.77;100.00;102010.88;2612747;36;20057;-56
2022/07/04 06:16:34;;;;;;;22.03;9.60;;;;;;;15.93;100.00;102006.78;2614167;36;20034;-51
2022/07/04 06:19:03;;;;;;;14.52;8.05;;;;;;;16.00;100.00;102013.34;2612637;36;20552;-56
2022/07/04 06:21:31;;;;;;;13.90;7.87;;;;;;;15.85;100.00;102006.63;2613935;36;20057;-54
2022/07/04 06:24:00;;;;;;;10.37;7.50;;;;;;;16.18;100.00;102004.47;2612094;36;20307;-54
2022/07/04 06:26:29;;;;;;;15.60;8.43;;;;;;;16.51;100.00;101994.97;2614042;36;20072;-52
2022/07/04 06:29:00;;;;;;;13.25;8.48;;;;;;;16.70;100.00;101999.47;2613223;36;20466;-51
2022/07/04 06:31:29;;;;;;;14.10;7.47;;;;;;;16.74;100.00;101990.03;2613241;36;20732;-55
2022/07/04 06:36:38;;;;;;;10.38;6.90;;;;;;;16.77;100.00;101995.16;2614254;36;20031;-55
2022/07/04 06:39:06;;;;;;;11.77;7.23;;;;;;;16.79;100.00;101993.16;2613286;31;20045;-56
2022/07/04 06:41:34;;;;;;;14.13;7.65;;;;;;;16.87;100.00;101994.25;2612302;36;20727;-53
2022/07/04 06:44:06;;;;;;;14.85;7.63;;;;;;;16.97;100.00;101995.97;2613425;36;20057;-59
2022/07/04 06:46:34;;;;;;;13.70;7.57;;;;;;;17.07;100.00;102001.34;2613656;36;20540;-55
2022/07/04 06:49:03;;;;;;;9.23;6.70;;;;;;;17.45;100.00;102002.13;2612794;36;20035;-55
2022/07/04 06:51:31;;;;;;;13.48;7.72;;;;;;;17.59;100.00;101994.44;2614262;36;20031;-56
2022/07/04 06:53:59;;;;;;;12.32;7.38;;;;;;;17.85;100.00;101992.66;2613755;36;20030;-59
2022/07/04 06:56:28;;;;;;;13.57;7.63;;;;;;;17.64;100.00;101987.53;2613319;36;20067;-54
2022/07/04 06:58:56;;;;;;;12.10;7.60;;;;;;;17.90;100.00;101975.88;2613673;36;20061;-58
2022/07/04 07:01:27;;;;;;;15.45;8.05;;;;;;;18.31;100.00;101984.38;2612381;36;20073;-58
2022/07/04 07:03:55;;;;;;;13.02;7.88;;;;;;;18.09;100.00;101972.13;2613913;36;20030;-57
2022/07/04 07:06:24;;;;;;;10.80;7.50;;;;;;;18.17;100.00;101974.06;2609992;36;26121;-59
2022/07/04 07:08:52;;;;;;;13.55;7.18;;;;;;;18.20;100.00;101977.31;2601332;36;20034;-57
2022/07/04 07:11:21;;;;;;;14.32;7.20;;;;;;;17.96;100.00;101979.84;2613192;36;20030;-60
2022/07/04 07:13:51;;;;;;;15.02;9.05;;;;;;;17.52;100.00;101981.47;2612794;36;20029;-56
2022/07/04 07:16:19;;;;;;;13.57;8.02;;;;;;;17.73;100.00;101990.34;2612309;36;20043;-57
2022/07/04 07:18:51;;;;;;;13.02;7.38;;;;;;;17.96;100.00;101985.28;2612494;36;20123;-57
2022/07/04 07:21:20;;;;;;;15.05;7.10;;;;;;;17.75;100.00;101983.72;2613198;36;20039;-60
2022/07/04 07:23:49;;;;;;;13.00;6.80;;;;;;;17.63;100.00;101984.97;2612801;31;20057;-56
2022/07/04 07:26:17;;;;;;;10.45;6.35;;;;;;;17.78;100.00;101977.94;2612203;36;20303;-55
2022/07/04 07:28:45;;;;;;;14.73;6.90;;;;;;;17.91;100.00;101985.75;2613082;36;20935;-56
2022/07/04 07:31:14;;;;;;;16.53;6.50;;;;;;;18.28;100.00;101975.66;2613284;36;20701;-58
2022/07/04 07:33:42;;;;;;;12.38;6.60;;;;;;;18.48;100.00;101971.72;2613609;36;20041;-54
2022/07/04 07:36:13;;;;;;;12.68;6.30;;;;;;;18.80;100.00;101975.63;2612327;36;20034;-59
2022/07/04 07:38:42;;;;;;;11.77;5.07;;;;;;;18.88;100.00;101975.69;2612344;36;20038;-52
2022/07/04 07:41:11;;;;;;;10.73;4.72;;;;;;;18.93;100.00;101971.63;2613879;36;20061;-57
2022/07/04 07:43:40;;;;;;;8.65;5.35;;;;;;;19.08;100.00;101980.91;2611288;36;20061;-57
2022/07/04 07:46:10;;;;;;;10.00;4.78;;;;;;;19.42;100.00;101977.25;2612828;36;20069;-56
2022/07/04 07:48:38;;;;;;;8.77;4.90;;;;;;;19.32;100.00;101976.53;2612984;36;20059;-57
2022/07/04 07:51:06;;;;;;;9.38;5.00;;;;;;;19.07;100.00;101984.66;2611534;31;20034;-53
2022/07/04 07:53:37;;;;;;;9.77;4.38;;;;;;;18.91;100.00;101977.25;2613583;36;20030;-58
2022/07/04 07:56:06;;;;;;;9.50;4.90;;;;;;;19.17;100.00;101985.38;2612633;36;20045;-56
2022/07/04 07:58:34;;;;;;;11.07;4.43;;;;;;;19.41;100.00;101986.44;2613312;36;20034;-57
2022/07/04 08:01:03;;;;;;;9.60;3.90;;;;;;;19.89;100.00;101979.38;2612728;36;20068;-59
2022/07/04 08:06:14;;;;;;;7.80;3.65;;;;;;;19.16;100.00;101977.34;2612966;36;20030;-59
2022/07/04 08:08:45;;;;;;;6.25;3.45;;;;;;;19.19;100.00;101971.56;2611051;36;20035;-57
2022/07/04 08:11:14;;;;;;;8.50;3.63;;;;;;;19.21;100.00;101975.84;2613761;36;20447;-56
2022/07/04 08:13:43;;;;;;;9.45;3.28;;;;;;;19.59;100.00;101970.78;2611992;36;20042;-59
2022/07/04 08:16:12;;;;;;;;;;;;;;;20.21;100.00;101966.69;2612735;36;20615;-58
2022/07/04 08:18:40;;;;;;;5.97;3.33;;;;;;;20.04;100.00;101974.09;2612750;36;19977;-57
2022/07/04 08:21:09;;;;;;;9.25;2.75;;;;;;;20.39;100.00;101979.31;2612132;31;20567;-56
2022/07/04 08:23:38;;;;;;;10.15;2.90;;;;;;;20.25;100.00;101973.53;2611243;36;20038;-58
2022/07/04 08:26:09;;;;;;;6.45;2.60;;;;;;;21.06;100.00;101976.22;2613089;36;20057;-57
2022/07/04 08:28:37;;;;;;;5.43;1.90;;;;;;;20.93;100.00;101965.84;2613107;36;20086;-57
2022/07/04 08:31:06;;;;;;;5.45;1.83;;;;;;;20.71;100.00;101972.09;2611954;31;20034;-59
2022/07/04 08:33:34;;;;;;;7.28;2.35;;;;;;;20.28;100.00;101978.66;2612431;36;20077;-58
2022/07/04 08:36:03;;;;;;;7.13;3.15;;;;;;;19.74;100.00;101981.03;2613997;36;20548;-58
2022/07/04 08:38:31;;;;;;;10.35;3.40;;;;;;;19.57;100.00;101981.03;2611870;36;20030;-56
2022/07/04 08:41:04;;;;;;;8.32;2.70;;;;;;;19.68;100.00;101984.44;2612643;36;20026;-56
2022/07/04 08:43:36;;;;;;;5.90;2.95;;;;;;;19.68;100.00;101988.03;2614320;36;20424;-56
2022/07/04 08:46:07;;;;;;;5.78;2.20;;;;;;;19.67;100.00;101993.66;2612444;36;20038;-57
2022/07/04 08:48:36;;;;;;;6.65;1.95;;;;;;;19.49;100.00;101989.19;2613185;36;20129;-53
2022/07/04 08:51:11;;;;;;;8.60;2.10;;;;;;;19.59;100.00;101987.16;2613177;36;20042;-55
2022/07/04 08:53:42;;;;;;;5.47;1.73;;;;;;;19.88;100.00;101996.78;2613088;36;20030;-57
2022/07/04 08:59:04;;;;;;;4.78;1.90;;;;;;;20.82;100.00;101988.16;2611754;31;20558;-58
2022/07/04 09:01:34;;;;;;;5.40;1.67;;;;;;;21.34;100.00;101989.44;2611761;36;20067;-55
2022/07/04 09:04:03;;;;;;;6.57;1.88;;;;;;;21.21;100.00;101995.50;2611177;36;20034;-56
2022/07/04 09:06:33;;;;;;;2.83;1.45;;;;;;;21.64;100.00;101995.97;2607833;36;20042;-58
2022/07/04 09:09:02;;;;;;;5.45;1.73;;;;;;;21.72;100.00;102002.44;2608533;36;20139;-57
2022/07/04 09:11:30;;;;;;;3.17;1.38;;;;;;;22.11;100.00;102006.91;2613999;31;20030;-58
2022/07/04 09:14:00;;;;;;;5.22;1.67;;;;;;;22.30;100.00;101994.56;2614434;31;20034;-56
2022/07/04 09:16:31;;;;;;;7.50;2.08;;;;;;;22.46;100.00;101980.72;2612481;36;20031;-55
2022/07/04 09:18:59;;;;;;;4.68;1.63;;;;;;;22.42;100.00;101986.75;2613036;36;20094;-59
2022/07/04 09:21:47;;;;;;;4.75;1.73;;;;;;;22.31;100.00;101986.16;2612140;36;20038;-57
2022/07/04 09:24:15;;;;;;;4.10;1.20;;;;;;;22.90;100.00;101979.00;2612028;36;20030;-56
2022/07/04 09:26:47;;;;;;;3.33;1.60;;;;;;;22.83;100.00;101970.66;2613534;36;20466;-56
2022/07/04 09:29:16;;;;;;;3.13;1.20;;;;;;;22.81;100.00;101977.41;2614429;36;20065;-52
2022/07/04 09:31:47;;;;;;;3.08;1.83;;;;;;;22.17;100.00;101979.59;2613096;36;20067;-54
2022/07/04 09:34:15;;;;;;;3.58;1.45;;;;;;;21.67;100.00;101984.66;2613460;36;20039;-56
2022/07/04 09:36:46;;;;;;;3.95;1.60;;;;;;;21.79;100.00;101986.94;2628264;36;20560;-53
2022/07/04 09:39:20;;;;;;;5.35;1.50;;;;;;;21.95;100.00;101992.31;2612959;36;20054;-56
2022/07/04 09:41:54;;;;;;;3.95;1.33;;;;;;;22.32;100.00;101985.16;2612321;36;20053;-55
2022/07/04 09:44:23;;;;;;;2.95;1.20;;;;;;;22.29;100.00;101993.72;2611660;36;20046;-58
2022/07/04 09:46:54;;;;;;;;;;;;;;;21.70;100.00;101999.84;2613295;36;20038;-53
2022/07/04 09:49:23;;;;;;;2.45;1.25;;;;;;;22.17;100.00;101995.19;2613811;36;19946;-57
2022/07/04 09:51:53;;;;;;;2.97;1.30;;;;;;;22.39;100.00;101994.34;2612964;36;20035;-57
2022/07/04 09:54:26;;;;;;;8.13;1.52;;;;;;;22.39;100.00;101977.88;2612649;36;20042;-56
2022/07/04 09:56:56;;;;;;;2.03;1.23;;;;;;;22.30;100.00;101978.94;2614843;36;20695;-54
2022/07/04 09:59:25;;;;;;;3.05;1.15;;;;;;;21.91;100.00;101980.00;2611954;36;20057;-56
2022/07/04 10:02:09;;;;;;;1.92;1.30;;;;;;;21.69;100.00;101990.78;2613698;36;20433;-57
2022/07/04 10:04:46;;;;;;;2.03;1.25;;;;;;;21.77;100.00;101994.50;2613242;36;20034;-58
2022/07/04 10:07:14;;;;;;;3.42;1.65;;;;;;;21.38;100.00;101990.78;2611739;36;20065;-57
2022/07/04 10:09:42;;;;;;;2.92;1.33;;;;;;;21.05;100.00;101979.16;2611750;31;20039;-56
2022/07/04 10:12:11;;;;;;;2.45;1.30;;;;;;;21.53;100.00;101989.00;2613619;36;20041;-57
2022/07/04 10:14:40;;;;;;;;;;;;;;;22.30;100.00;101987.16;2612910;36;20424;-56
2022/07/04 10:17:10;;;;;;;3.10;1.10;;;;;;;22.51;100.00;101974.66;2613023;36;19970;-57
2022/07/04 10:19:39;;;;;;;2.90;1.10;;;;;;;22.61;100.00;101983.44;2613434;36;20030;-54
2022/07/04 10:22:11;;;;;;;1.77;1.27;;;;;;;22.71;100.00;101988.66;2614092;31;20057;-59
2022/07/04 10:24:39;;;;;;;2.53;1.40;;;;;;;22.37;100.00;101990.91;2612068;36;20038;-55
2022/07/04 10:27:07;;;;;;;2.55;1.40;;;;;;;22.27;100.00;101987.53;2611927;36;20063;-56
2022/07/04 10:29:36;;;;;;;5.03;1.60;;;;;;;22.77;100.00;101984.31;2613641;36;20034;-57
2022/07/04 10:32:06;;;;;;;2.58;1.25;;;;;;;22.89;100.00;101974.56;2613123;36;20073;-55
2022/07/04 10:34:41;;;;;;;3.60;1.20;;;;;;;23.21;100.00;101976.03;2612637;36;20072;-56
2022/07/04 10:37:10;;;;;;;2.55;1.50;;;;;;;23.53;100.00;101967.53;2612298;31;20042;-59
2022/07/04 10:39:38;;;;;;;2.55;1.10;;;;;;;23.20;100.00;101965.25;2612845;36;20038;-57
2022/07/04 10:42:07;;;;;;;3.20;1.40;;;;;;;23.06;95.23;101973.31;2612831;31;20038;-58
2022/07/04 10:44:37;;;;;;;;;;;;;;;22.35;93.46;101971.06;2613097;36;20110;-55
2022/07/04 10:47:06;;;;;;;3.28;1.10;;;;;;;22.61;98.04;101972.47;2613362;31;19975;-58
2022/07/04 10:49:37;;;;;;;1.80;1.23;;;;;;;23.19;97.55;101978.16;2613763;36;20397;-57
2022/07/04 10:52:14;;;;;;;2.90;1.50;;;;;;;23.55;90.75;101970.94;2611174;36;20035;-58
2022/07/04 10:54:43;;;;;;;4.00;1.30;;;;;;;23.76;88.02;101965.44;2612686;36;20431;-59
2022/07/04 10:57:15;;;;;;;2.08;1.30;;;;;;;23.71;85.05;101969.81;2610656;36;20428;-56
2022/07/04 10:59:45;;;;;;;22.02;1.95;;;;;;;24.16;92.02;101966.84;2613755;36;20038;-57
2022/07/04 11:02:30;;;;;;;2.75;1.08;;;;;;;23.71;81.31;101972.56;2612907;36;20110;-58
2022/07/04 11:05:09;;;;;;;2.40;1.10;;;;;;;23.19;86.42;101971.78;2612935;31;20052;-57
2022/07/04 11:07:52;;;;;;;;;;;;;;;23.27;86.93;101974.44;2611460;31;20062;-60
2022/07/04 11:10:26;;;;;;;1.50;1.00;;;;;;;23.07;92.90;101975.00;2612051;36;19974;-58
2022/07/04 11:13:22;;;;;;;2.83;1.33;;;;;;;22.93;86.17;101976.72;2612881;36;20042;-57
2022/07/04 11:16:09;;;;;;;3.60;1.30;;;;;;;22.53;92.89;101978.06;2613424;36;20674;-58
2022/07/04 11:18:45;;;;;;;2.20;1.13;;;;;;;22.52;100.00;101970.88;2611744;31;20422;-58
2022/07/04 11:21:24;;;;;;;4.72;1.08;;;;;;;22.72;89.77;101965.69;2613126;36;20042;-53
2022/07/04 11:23:54;;;;;;;5.10;1.30;;;;;;;23.08;98.70;101967.63;2612915;36;20058;-58
2022/07/04 11:26:28;;;;;;;5.78;1.33;;;;;;;23.09;85.56;101961.94;2612088;36;20619;-58
2022/07/04 11:28:56;;;;;;;2.25;1.20;;;;;;;23.31;84.50;101967.50;2613338;36;20401;-57
2022/07/04 11:31:37;;;;;;;3.50;1.20;;;;;;;23.15;84.87;101970.50;2612946;36;20046;-58
2022/07/04 11:34:06;;;;;;;2.63;1.25;;;;;;;23.51;79.77;101959.50;2612942;36;20034;-59
2022/07/04 11:36:37;;;;;;;2.45;1.13;;;;;;;23.73;91.23;101968.59;2612100;31;20041;-58